sensor_id;sensor_type;location;lat;lon;timestamp;P1;durP1;ratioP1;P2;durP2;ratioP2
15982;SDS011;14442;50.196;8.096;2022-08-19T00:00:08;14.33;;;13.13;;
15982;SDS011;14442;50.196;8.096;2022-08-19T00:02:40;14.57;;;13.27;;
15982;SDS011;14442;50.196;8.096;2022-08-19T00:05:08;14.93;;;13.70;;
15982;SDS011;14442;50.196;8.096;2022-08-19T00:07:36;13.90;;;12.80;;
15982;SDS011;14442;50.196;8.096;2022-08-19T00:10:04;14.97;;;13.77;;
15982;SDS011;14442;50.196;8.096;2022-08-19T00:12:32;13.53;;;12.53;;
15982;SDS011;14442;50.196;8.096;2022-08-19T00:15:00;14.73;;;13.53;;
15982;SDS011;14442;50.196;8.096;2022-08-19T00:17:28;14.63;;;13.53;;
15982;SDS011;14442;50.196;8.096;2022-08-19T00:19:55;14.17;;;12.97;;
15982;SDS011;14442;50.196;8.096;2022-08-19T00:22:22;14.23;;;13.10;;
15982;SDS011;14442;50.196;8.096;2022-08-19T00:24:48;16.10;;;14.57;;
15982;SDS011;14442;50.196;8.096;2022-08-19T00:27:15;14.70;;;13.40;;
15982;SDS011;14442;50.196;8.096;2022-08-19T00:29:42;15.60;;;14.27;;
15982;SDS011;14442;50.196;8.096;2022-08-19T00:32:09;14.63;;;13.43;;
15982;SDS011;14442;50.196;8.096;2022-08-19T00:34:37;14.53;;;13.33;;
15982;SDS011;14442;50.196;8.096;2022-08-19T00:37:03;14.40;;;13.30;;
15982;SDS011;14442;50.196;8.096;2022-08-19T00:39:30;14.43;;;13.23;;
15982;SDS011;14442;50.196;8.096;2022-08-19T00:41:57;13.63;;;12.53;;
15982;SDS011;14442;50.196;8.096;2022-08-19T00:44:25;15.30;;;13.90;;
15982;SDS011;14442;50.196;8.096;2022-08-19T00:46:54;14.57;;;13.47;;
15982;SDS011;14442;50.196;8.096;2022-08-19T00:49:26;13.93;;;12.93;;
15982;SDS011;14442;50.196;8.096;2022-08-19T00:51:59;13.87;;;12.77;;
15982;SDS011;14442;50.196;8.096;2022-08-19T00:54:30;14.87;;;13.43;;
15982;SDS011;14442;50.196;8.096;2022-08-19T00:56:58;14.63;;;13.53;;
15982;SDS011;14442;50.196;8.096;2022-08-19T00:59:25;14.47;;;13.27;;
15982;SDS011;14442;50.196;8.096;2022-08-19T01:01:53;13.80;;;12.60;;
15982;SDS011;14442;50.196;8.096;2022-08-19T01:04:20;14.73;;;13.53;;
15982;SDS011;14442;50.196;8.096;2022-08-19T01:06:46;14.47;;;13.23;;
15982;SDS011;14442;50.196;8.096;2022-08-19T01:09:15;13.93;;;12.73;;
15982;SDS011;14442;50.196;8.096;2022-08-19T01:11:41;15.17;;;13.97;;
15982;SDS011;14442;50.196;8.096;2022-08-19T01:14:10;14.13;;;13.03;;
15982;SDS011;14442;50.196;8.096;2022-08-19T01:16:37;14.97;;;13.77;;
15982;SDS011;14442;50.196;8.096;2022-08-19T01:19:08;15.83;;;14.47;;
15982;SDS011;14442;50.196;8.096;2022-08-19T01:21:39;16.40;;;15.00;;
15982;SDS011;14442;50.196;8.096;2022-08-19T01:24:11;16.90;;;15.50;;
15982;SDS011;14442;50.196;8.096;2022-08-19T01:26:38;16.50;;;15.20;;
15982;SDS011;14442;50.196;8.096;2022-08-19T01:29:07;17.10;;;15.60;;
15982;SDS011;14442;50.196;8.096;2022-08-19T01:31:35;16.87;;;15.37;;
15982;SDS011;14442;50.196;8.096;2022-08-19T01:34:04;16.40;;;15.20;;
15982;SDS011;14442;50.196;8.096;2022-08-19T01:36:33;16.47;;;15.03;;
15982;SDS011;14442;50.196;8.096;2022-08-19T01:39:03;15.53;;;14.33;;
15982;SDS011;14442;50.196;8.096;2022-08-19T01:41:33;15.73;;;14.43;;
15982;SDS011;14442;50.196;8.096;2022-08-19T01:44:00;17.80;;;16.20;;
15982;SDS011;14442;50.196;8.096;2022-08-19T01:46:28;16.33;;;15.03;;
15982;SDS011;14442;50.196;8.096;2022-08-19T01:48:55;17.13;;;15.63;;
15982;SDS011;14442;50.196;8.096;2022-08-19T01:51:22;17.77;;;16.27;;
15982;SDS011;14442;50.196;8.096;2022-08-19T01:53:50;18.43;;;16.93;;
15982;SDS011;14442;50.196;8.096;2022-08-19T01:56:17;17.47;;;15.93;;
15982;SDS011;14442;50.196;8.096;2022-08-19T01:58:47;16.70;;;15.33;;
15982;SDS011;14442;50.196;8.096;2022-08-19T02:01:17;17.67;;;16.20;;
15982;SDS011;14442;50.196;8.096;2022-08-19T02:03:45;17.90;;;16.40;;
15982;SDS011;14442;50.196;8.096;2022-08-19T02:06:12;17.03;;;15.67;;
15982;SDS011;14442;50.196;8.096;2022-08-19T02:08:42;15.93;;;14.63;;
15982;SDS011;14442;50.196;8.096;2022-08-19T02:11:17;15.40;;;14.17;;
15982;SDS011;14442;50.196;8.096;2022-08-19T02:13:46;16.10;;;14.60;;
15982;SDS011;14442;50.196;8.096;2022-08-19T02:16:14;14.80;;;13.60;;
15982;SDS011;14442;50.196;8.096;2022-08-19T02:18:41;15.53;;;14.33;;
15982;SDS011;14442;50.196;8.096;2022-08-19T02:21:08;14.90;;;13.67;;
15982;SDS011;14442;50.196;8.096;2022-08-19T02:23:36;14.40;;;13.10;;
15982;SDS011;14442;50.196;8.096;2022-08-19T02:26:03;15.67;;;14.17;;
15982;SDS011;14442;50.196;8.096;2022-08-19T02:28:31;14.30;;;13.20;;
15982;SDS011;14442;50.196;8.096;2022-08-19T02:30:59;14.03;;;12.93;;
15982;SDS011;14442;50.196;8.096;2022-08-19T02:33:27;14.37;;;13.10;;
15982;SDS011;14442;50.196;8.096;2022-08-19T02:35:54;14.37;;;13.03;;
15982;SDS011;14442;50.196;8.096;2022-08-19T02:38:21;13.83;;;12.63;;
15982;SDS011;14442;50.196;8.096;2022-08-19T02:40:53;14.00;;;12.80;;
15982;SDS011;14442;50.196;8.096;2022-08-19T02:43:22;16.10;;;14.60;;
15982;SDS011;14442;50.196;8.096;2022-08-19T02:45:50;15.33;;;14.03;;
15982;SDS011;14442;50.196;8.096;2022-08-19T02:48:19;14.40;;;13.30;;
15982;SDS011;14442;50.196;8.096;2022-08-19T02:50:47;12.77;;;11.73;;
15982;SDS011;14442;50.196;8.096;2022-08-19T02:53:17;14.23;;;13.13;;
15982;SDS011;14442;50.196;8.096;2022-08-19T02:55:45;13.47;;;12.47;;
15982;SDS011;14442;50.196;8.096;2022-08-19T02:58:13;13.60;;;12.60;;
15982;SDS011;14442;50.196;8.096;2022-08-19T03:00:41;13.60;;;12.50;;
15982;SDS011;14442;50.196;8.096;2022-08-19T03:03:11;13.53;;;12.53;;
15982;SDS011;14442;50.196;8.096;2022-08-19T03:05:40;13.77;;;12.60;;
15982;SDS011;14442;50.196;8.096;2022-08-19T03:08:07;13.17;;;12.07;;
15982;SDS011;14442;50.196;8.096;2022-08-19T03:10:39;13.97;;;12.87;;
15982;SDS011;14442;50.196;8.096;2022-08-19T03:13:09;14.17;;;12.97;;
15982;SDS011;14442;50.196;8.096;2022-08-19T03:15:38;14.03;;;12.93;;
15982;SDS011;14442;50.196;8.096;2022-08-19T03:18:06;14.40;;;13.40;;
15982;SDS011;14442;50.196;8.096;2022-08-19T03:20:33;15.47;;;14.07;;
15982;SDS011;14442;50.196;8.096;2022-08-19T03:23:01;14.63;;;13.40;;
15982;SDS011;14442;50.196;8.096;2022-08-19T03:25:28;14.47;;;13.27;;
15982;SDS011;14442;50.196;8.096;2022-08-19T03:27:54;14.90;;;13.60;;
15982;SDS011;14442;50.196;8.096;2022-08-19T03:30:21;13.60;;;12.50;;
15982;SDS011;14442;50.196;8.096;2022-08-19T03:32:48;13.63;;;12.60;;
15982;SDS011;14442;50.196;8.096;2022-08-19T03:35:14;13.93;;;12.70;;
15982;SDS011;14442;50.196;8.096;2022-08-19T03:37:41;13.57;;;12.57;;
15982;SDS011;14442;50.196;8.096;2022-08-19T03:40:10;14.00;;;12.90;;
15982;SDS011;14442;50.196;8.096;2022-08-19T03:42:36;13.17;;;12.07;;
15982;SDS011;14442;50.196;8.096;2022-08-19T03:45:04;13.23;;;12.23;;
15982;SDS011;14442;50.196;8.096;2022-08-19T03:47:32;13.10;;;12.10;;
15982;SDS011;14442;50.196;8.096;2022-08-19T03:49:58;13.50;;;12.40;;
15982;SDS011;14442;50.196;8.096;2022-08-19T03:52:25;14.67;;;13.57;;
15982;SDS011;14442;50.196;8.096;2022-08-19T03:54:52;14.07;;;12.97;;
15982;SDS011;14442;50.196;8.096;2022-08-19T03:57:20;13.57;;;12.57;;
15982;SDS011;14442;50.196;8.096;2022-08-19T03:59:47;12.97;;;12.00;;
15982;SDS011;14442;50.196;8.096;2022-08-19T04:02:14;13.00;;;12.00;;
15982;SDS011;14442;50.196;8.096;2022-08-19T04:04:41;13.10;;;12.00;;
15982;SDS011;14442;50.196;8.096;2022-08-19T04:07:09;12.83;;;11.83;;
15982;SDS011;14442;50.196;8.096;2022-08-19T04:09:40;13.50;;;12.40;;
15982;SDS011;14442;50.196;8.096;2022-08-19T04:12:07;13.27;;;12.23;;
15982;SDS011;14442;50.196;8.096;2022-08-19T04:14:35;12.27;;;11.37;;
15982;SDS011;14442;50.196;8.096;2022-08-19T04:17:02;12.27;;;11.27;;
15982;SDS011;14442;50.196;8.096;2022-08-19T04:19:30;12.90;;;11.90;;
15982;SDS011;14442;50.196;8.096;2022-08-19T04:21:58;12.50;;;11.50;;
15982;SDS011;14442;50.196;8.096;2022-08-19T04:24:25;12.10;;;11.20;;
15982;SDS011;14442;50.196;8.096;2022-08-19T04:26:52;12.30;;;11.33;;
15982;SDS011;14442;50.196;8.096;2022-08-19T04:29:19;13.17;;;12.03;;
15982;SDS011;14442;50.196;8.096;2022-08-19T04:31:51;13.60;;;12.57;;
15982;SDS011;14442;50.196;8.096;2022-08-19T04:34:20;13.30;;;12.23;;
15982;SDS011;14442;50.196;8.096;2022-08-19T04:36:49;13.10;;;12.00;;
15982;SDS011;14442;50.196;8.096;2022-08-19T04:39:19;12.57;;;11.50;;
15982;SDS011;14442;50.196;8.096;2022-08-19T04:41:47;12.33;;;11.33;;
15982;SDS011;14442;50.196;8.096;2022-08-19T04:44:41;12.40;;;11.40;;
15982;SDS011;14442;50.196;8.096;2022-08-19T04:47:09;12.37;;;11.27;;
15982;SDS011;14442;50.196;8.096;2022-08-19T04:49:36;12.90;;;11.73;;
15982;SDS011;14442;50.196;8.096;2022-08-19T04:52:02;12.67;;;11.53;;
15982;SDS011;14442;50.196;8.096;2022-08-19T04:54:29;12.00;;;11.10;;
15982;SDS011;14442;50.196;8.096;2022-08-19T04:56:56;11.80;;;10.90;;
15982;SDS011;14442;50.196;8.096;2022-08-19T04:59:23;11.63;;;10.63;;
15982;SDS011;14442;50.196;8.096;2022-08-19T05:01:49;12.50;;;11.30;;
15982;SDS011;14442;50.196;8.096;2022-08-19T05:04:18;12.17;;;11.17;;
15982;SDS011;14442;50.196;8.096;2022-08-19T05:06:46;12.03;;;11.13;;
15982;SDS011;14442;50.196;8.096;2022-08-19T05:09:14;12.40;;;11.40;;
15982;SDS011;14442;50.196;8.096;2022-08-19T05:11:42;12.50;;;11.43;;
15982;SDS011;14442;50.196;8.096;2022-08-19T05:14:10;11.77;;;10.87;;
15982;SDS011;14442;50.196;8.096;2022-08-19T05:16:38;12.13;;;11.17;;
15982;SDS011;14442;50.196;8.096;2022-08-19T05:19:06;13.10;;;12.00;;
15982;SDS011;14442;50.196;8.096;2022-08-19T05:21:51;12.53;;;11.63;;
15982;SDS011;14442;50.196;8.096;2022-08-19T05:24:36;12.90;;;11.70;;
15982;SDS011;14442;50.196;8.096;2022-08-19T05:27:04;13.13;;;12.03;;
15982;SDS011;14442;50.196;8.096;2022-08-19T05:29:32;12.90;;;11.80;;
15982;SDS011;14442;50.196;8.096;2022-08-19T05:32:00;13.10;;;11.90;;
15982;SDS011;14442;50.196;8.096;2022-08-19T05:34:29;12.77;;;11.67;;
15982;SDS011;14442;50.196;8.096;2022-08-19T05:36:59;12.10;;;11.20;;
15982;SDS011;14442;50.196;8.096;2022-08-19T05:39:29;12.47;;;11.40;;
15982;SDS011;14442;50.196;8.096;2022-08-19T05:41:59;11.70;;;10.80;;
15982;SDS011;14442;50.196;8.096;2022-08-19T05:44:30;12.33;;;11.33;;
15982;SDS011;14442;50.196;8.096;2022-08-19T05:46:58;12.10;;;11.10;;
15982;SDS011;14442;50.196;8.096;2022-08-19T05:49:27;12.33;;;11.33;;
15982;SDS011;14442;50.196;8.096;2022-08-19T05:51:54;12.50;;;11.50;;
15982;SDS011;14442;50.196;8.096;2022-08-19T05:54:23;13.40;;;12.00;;
15982;SDS011;14442;50.196;8.096;2022-08-19T05:56:50;14.83;;;13.33;;
15982;SDS011;14442;50.196;8.096;2022-08-19T05:59:18;14.07;;;12.80;;
15982;SDS011;14442;50.196;8.096;2022-08-19T06:01:46;13.27;;;12.20;;
15982;SDS011;14442;50.196;8.096;2022-08-19T06:04:16;13.07;;;12.00;;
15982;SDS011;14442;50.196;8.096;2022-08-19T06:06:44;13.13;;;11.90;;
15982;SDS011;14442;50.196;8.096;2022-08-19T06:09:11;13.70;;;12.60;;
15982;SDS011;14442;50.196;8.096;2022-08-19T06:11:40;14.43;;;12.93;;
15982;SDS011;14442;50.196;8.096;2022-08-19T06:14:10;14.50;;;13.30;;
15982;SDS011;14442;50.196;8.096;2022-08-19T06:16:39;15.70;;;14.40;;
15982;SDS011;14442;50.196;8.096;2022-08-19T06:19:08;15.33;;;13.97;;
15982;SDS011;14442;50.196;8.096;2022-08-19T06:21:37;16.20;;;14.70;;
15982;SDS011;14442;50.196;8.096;2022-08-19T06:24:05;16.00;;;14.40;;
15982;SDS011;14442;50.196;8.096;2022-08-19T06:26:34;16.80;;;15.10;;
15982;SDS011;14442;50.196;8.096;2022-08-19T06:29:03;17.13;;;15.50;;
15982;SDS011;14442;50.196;8.096;2022-08-19T06:31:31;16.60;;;15.20;;
15982;SDS011;14442;50.196;8.096;2022-08-19T06:33:59;17.20;;;15.60;;
15982;SDS011;14442;50.196;8.096;2022-08-19T06:36:30;17.00;;;15.70;;
15982;SDS011;14442;50.196;8.096;2022-08-19T06:38:59;16.97;;;15.47;;
15982;SDS011;14442;50.196;8.096;2022-08-19T06:41:27;17.30;;;15.90;;
15982;SDS011;14442;50.196;8.096;2022-08-19T06:43:55;14.93;;;13.43;;
15982;SDS011;14442;50.196;8.096;2022-08-19T06:46:23;16.77;;;15.27;;
15982;SDS011;14442;50.196;8.096;2022-08-19T06:48:51;15.37;;;14.13;;
15982;SDS011;14442;50.196;8.096;2022-08-19T06:51:19;14.30;;;13.00;;
15982;SDS011;14442;50.196;8.096;2022-08-19T06:53:47;14.23;;;12.97;;
15982;SDS011;14442;50.196;8.096;2022-08-19T06:56:15;15.17;;;13.83;;
15982;SDS011;14442;50.196;8.096;2022-08-19T06:58:42;14.90;;;13.50;;
15982;SDS011;14442;50.196;8.096;2022-08-19T07:01:10;14.23;;;13.03;;
15982;SDS011;14442;50.196;8.096;2022-08-19T07:03:38;14.87;;;13.67;;
15982;SDS011;14442;50.196;8.096;2022-08-19T07:06:06;14.00;;;12.80;;
15982;SDS011;14442;50.196;8.096;2022-08-19T07:08:34;13.93;;;12.67;;
15982;SDS011;14442;50.196;8.096;2022-08-19T07:11:02;14.10;;;12.77;;
15982;SDS011;14442;50.196;8.096;2022-08-19T07:13:31;14.20;;;12.90;;
15982;SDS011;14442;50.196;8.096;2022-08-19T07:16:02;13.20;;;12.10;;
15982;SDS011;14442;50.196;8.096;2022-08-19T07:18:30;12.40;;;11.30;;
15982;SDS011;14442;50.196;8.096;2022-08-19T07:21:03;12.40;;;11.33;;
15982;SDS011;14442;50.196;8.096;2022-08-19T07:23:30;12.03;;;11.03;;
15982;SDS011;14442;50.196;8.096;2022-08-19T07:25:57;13.60;;;12.30;;
15982;SDS011;14442;50.196;8.096;2022-08-19T07:28:24;13.30;;;12.03;;
15982;SDS011;14442;50.196;8.096;2022-08-19T07:30:51;12.00;;;10.80;;
15982;SDS011;14442;50.196;8.096;2022-08-19T07:33:18;11.73;;;10.80;;
15982;SDS011;14442;50.196;8.096;2022-08-19T07:35:45;12.23;;;11.20;;
15982;SDS011;14442;50.196;8.096;2022-08-19T07:38:13;11.50;;;10.60;;
15982;SDS011;14442;50.196;8.096;2022-08-19T07:40:40;11.70;;;10.60;;
15982;SDS011;14442;50.196;8.096;2022-08-19T07:43:08;11.77;;;10.77;;
15982;SDS011;14442;50.196;8.096;2022-08-19T07:45:35;11.37;;;10.27;;
15982;SDS011;14442;50.196;8.096;2022-08-19T07:48:02;11.03;;;9.87;;
15982;SDS011;14442;50.196;8.096;2022-08-19T07:50:29;12.17;;;10.90;;
15982;SDS011;14442;50.196;8.096;2022-08-19T07:52:56;11.93;;;10.67;;
15982;SDS011;14442;50.196;8.096;2022-08-19T07:55:25;12.00;;;10.90;;
15982;SDS011;14442;50.196;8.096;2022-08-19T07:57:52;11.13;;;10.03;;
15982;SDS011;14442;50.196;8.096;2022-08-19T08:00:19;10.47;;;9.53;;
15982;SDS011;14442;50.196;8.096;2022-08-19T08:02:46;11.20;;;10.10;;
15982;SDS011;14442;50.196;8.096;2022-08-19T08:05:12;11.80;;;10.70;;
15982;SDS011;14442;50.196;8.096;2022-08-19T08:07:57;10.63;;;9.73;;
15982;SDS011;14442;50.196;8.096;2022-08-19T08:10:42;11.03;;;10.03;;
15982;SDS011;14442;50.196;8.096;2022-08-19T08:13:09;10.80;;;9.70;;
15982;SDS011;14442;50.196;8.096;2022-08-19T08:15:36;11.37;;;10.30;;
15982;SDS011;14442;50.196;8.096;2022-08-19T08:18:04;11.10;;;9.83;;
15982;SDS011;14442;50.196;8.096;2022-08-19T08:20:31;11.40;;;10.40;;
15982;SDS011;14442;50.196;8.096;2022-08-19T08:22:59;12.10;;;10.60;;
15982;SDS011;14442;50.196;8.096;2022-08-19T08:25:44;14.63;;;13.20;;
15982;SDS011;14442;50.196;8.096;2022-08-19T08:28:13;15.33;;;13.83;;
15982;SDS011;14442;50.196;8.096;2022-08-19T08:30:39;18.23;;;16.43;;
15982;SDS011;14442;50.196;8.096;2022-08-19T08:33:08;19.90;;;17.77;;
15982;SDS011;14442;50.196;8.096;2022-08-19T08:35:35;20.03;;;17.90;;
15982;SDS011;14442;50.196;8.096;2022-08-19T08:38:02;20.87;;;18.97;;
15982;SDS011;14442;50.196;8.096;2022-08-19T08:40:33;21.57;;;19.47;;
15982;SDS011;14442;50.196;8.096;2022-08-19T08:43:07;22.40;;;20.23;;
15982;SDS011;14442;50.196;8.096;2022-08-19T08:45:47;21.50;;;19.60;;
15982;SDS011;14442;50.196;8.096;2022-08-19T08:48:19;21.87;;;19.60;;
15982;SDS011;14442;50.196;8.096;2022-08-19T08:50:48;21.77;;;19.77;;
15982;SDS011;14442;50.196;8.096;2022-08-19T08:53:18;23.00;;;20.73;;
15982;SDS011;14442;50.196;8.096;2022-08-19T08:55:47;21.43;;;19.43;;
15982;SDS011;14442;50.196;8.096;2022-08-19T08:58:16;20.97;;;18.90;;
15982;SDS011;14442;50.196;8.096;2022-08-19T09:00:50;21.60;;;19.70;;
15982;SDS011;14442;50.196;8.096;2022-08-19T09:03:17;20.70;;;18.87;;
15982;SDS011;14442;50.196;8.096;2022-08-19T09:05:48;22.37;;;19.90;;
15982;SDS011;14442;50.196;8.096;2022-08-19T09:08:23;21.37;;;19.33;;
15982;SDS011;14442;50.196;8.096;2022-08-19T09:10:59;19.90;;;18.20;;
15982;SDS011;14442;50.196;8.096;2022-08-19T09:13:34;19.40;;;17.80;;
15982;SDS011;14442;50.196;8.096;2022-08-19T09:16:09;18.17;;;16.57;;
15982;SDS011;14442;50.196;8.096;2022-08-19T09:18:39;17.50;;;15.80;;
15982;SDS011;14442;50.196;8.096;2022-08-19T09:21:08;15.83;;;14.37;;
15982;SDS011;14442;50.196;8.096;2022-08-19T09:23:36;17.27;;;15.77;;
15982;SDS011;14442;50.196;8.096;2022-08-19T09:26:06;18.57;;;15.60;;
15982;SDS011;14442;50.196;8.096;2022-08-19T09:28:35;17.83;;;16.23;;
15982;SDS011;14442;50.196;8.096;2022-08-19T09:31:02;17.07;;;15.47;;
15982;SDS011;14442;50.196;8.096;2022-08-19T09:33:29;15.50;;;14.07;;
15982;SDS011;14442;50.196;8.096;2022-08-19T09:36:04;14.50;;;13.03;;
15982;SDS011;14442;50.196;8.096;2022-08-19T09:38:33;15.00;;;13.60;;
15982;SDS011;14442;50.196;8.096;2022-08-19T09:41:03;14.70;;;12.93;;
15982;SDS011;14442;50.196;8.096;2022-08-19T09:43:31;15.57;;;14.07;;
15982;SDS011;14442;50.196;8.096;2022-08-19T09:46:00;15.27;;;13.87;;
15982;SDS011;14442;50.196;8.096;2022-08-19T09:48:27;15.83;;;14.47;;
15982;SDS011;14442;50.196;8.096;2022-08-19T09:50:53;14.80;;;13.60;;
15982;SDS011;14442;50.196;8.096;2022-08-19T09:53:20;14.43;;;13.03;;
15982;SDS011;14442;50.196;8.096;2022-08-19T09:55:48;14.97;;;13.57;;
15982;SDS011;14442;50.196;8.096;2022-08-19T09:58:16;13.47;;;12.30;;
15982;SDS011;14442;50.196;8.096;2022-08-19T10:00:42;13.07;;;11.83;;
15982;SDS011;14442;50.196;8.096;2022-08-19T10:03:12;12.60;;;11.60;;
15982;SDS011;14442;50.196;8.096;2022-08-19T10:05:38;12.47;;;11.47;;
15982;SDS011;14442;50.196;8.096;2022-08-19T10:08:14;11.90;;;11.00;;
15982;SDS011;14442;50.196;8.096;2022-08-19T10:10:43;11.50;;;10.40;;
15982;SDS011;14442;50.196;8.096;2022-08-19T10:13:10;9.97;;;8.97;;
15982;SDS011;14442;50.196;8.096;2022-08-19T10:15:38;10.27;;;9.37;;
15982;SDS011;14442;50.196;8.096;2022-08-19T10:18:05;9.33;;;8.53;;
15982;SDS011;14442;50.196;8.096;2022-08-19T10:20:33;8.53;;;7.87;;
15982;SDS011;14442;50.196;8.096;2022-08-19T10:23:02;7.90;;;7.23;;
15982;SDS011;14442;50.196;8.096;2022-08-19T10:25:29;7.33;;;6.80;;
15982;SDS011;14442;50.196;8.096;2022-08-19T10:27:58;8.30;;;7.63;;
15982;SDS011;14442;50.196;8.096;2022-08-19T10:30:25;8.03;;;7.37;;
15982;SDS011;14442;50.196;8.096;2022-08-19T10:32:52;8.00;;;7.37;;
15982;SDS011;14442;50.196;8.096;2022-08-19T10:35:19;7.97;;;7.30;;
15982;SDS011;14442;50.196;8.096;2022-08-19T10:37:47;7.60;;;7.10;;
15982;SDS011;14442;50.196;8.096;2022-08-19T10:40:14;7.87;;;7.30;;
15982;SDS011;14442;50.196;8.096;2022-08-19T10:42:41;8.00;;;7.30;;
15982;SDS011;14442;50.196;8.096;2022-08-19T10:45:08;7.80;;;7.20;;
15982;SDS011;14442;50.196;8.096;2022-08-19T10:47:36;6.63;;;5.90;;
15982;SDS011;14442;50.196;8.096;2022-08-19T10:50:03;7.20;;;6.50;;
15982;SDS011;14442;50.196;8.096;2022-08-19T10:52:49;6.53;;;5.80;;
15982;SDS011;14442;50.196;8.096;2022-08-19T10:55:16;5.53;;;5.07;;
15982;SDS011;14442;50.196;8.096;2022-08-19T10:58:02;8.73;;;5.87;;
15982;SDS011;14442;50.196;8.096;2022-08-19T11:00:28;5.80;;;5.13;;
15982;SDS011;14442;50.196;8.096;2022-08-19T11:02:56;4.73;;;4.43;;
15982;SDS011;14442;50.196;8.096;2022-08-19T11:05:23;5.03;;;4.53;;
15982;SDS011;14442;50.196;8.096;2022-08-19T11:07:51;6.97;;;4.97;;
15982;SDS011;14442;50.196;8.096;2022-08-19T11:10:18;5.73;;;5.30;;
15982;SDS011;14442;50.196;8.096;2022-08-19T11:12:45;8.30;;;5.97;;
15982;SDS011;14442;50.196;8.096;2022-08-19T11:15:13;7.40;;;6.30;;
15982;SDS011;14442;50.196;8.096;2022-08-19T11:17:39;11.17;;;6.50;;
15982;SDS011;14442;50.196;8.096;2022-08-19T11:20:09;6.40;;;5.83;;
15982;SDS011;14442;50.196;8.096;2022-08-19T11:22:37;7.20;;;6.33;;
15982;SDS011;14442;50.196;8.096;2022-08-19T11:25:07;5.80;;;5.33;;
15982;SDS011;14442;50.196;8.096;2022-08-19T11:27:37;5.57;;;5.23;;
15982;SDS011;14442;50.196;8.096;2022-08-19T11:30:06;5.37;;;4.97;;
15982;SDS011;14442;50.196;8.096;2022-08-19T11:32:34;5.10;;;4.70;;
15982;SDS011;14442;50.196;8.096;2022-08-19T11:35:01;6.07;;;5.47;;
15982;SDS011;14442;50.196;8.096;2022-08-19T11:37:28;8.33;;;5.60;;
15982;SDS011;14442;50.196;8.096;2022-08-19T11:39:55;5.50;;;5.00;;
15982;SDS011;14442;50.196;8.096;2022-08-19T11:42:23;5.80;;;5.30;;
15982;SDS011;14442;50.196;8.096;2022-08-19T11:45:07;5.93;;;5.37;;
15982;SDS011;14442;50.196;8.096;2022-08-19T11:47:35;5.67;;;5.27;;
15982;SDS011;14442;50.196;8.096;2022-08-19T11:50:04;7.13;;;5.40;;
15982;SDS011;14442;50.196;8.096;2022-08-19T11:52:31;5.67;;;5.17;;
15982;SDS011;14442;50.196;8.096;2022-08-19T11:54:58;5.30;;;4.90;;
15982;SDS011;14442;50.196;8.096;2022-08-19T11:57:26;4.70;;;4.40;;
15982;SDS011;14442;50.196;8.096;2022-08-19T11:59:53;5.80;;;5.27;;
15982;SDS011;14442;50.196;8.096;2022-08-19T12:02:19;5.20;;;4.80;;
15982;SDS011;14442;50.196;8.096;2022-08-19T12:04:46;6.07;;;4.80;;
15982;SDS011;14442;50.196;8.096;2022-08-19T12:07:13;5.23;;;4.80;;
15982;SDS011;14442;50.196;8.096;2022-08-19T12:09:40;5.63;;;4.33;;
15982;SDS011;14442;50.196;8.096;2022-08-19T12:12:07;4.67;;;4.30;;
15982;SDS011;14442;50.196;8.096;2022-08-19T12:14:35;5.97;;;5.03;;
15982;SDS011;14442;50.196;8.096;2022-08-19T12:17:02;5.20;;;4.80;;
15982;SDS011;14442;50.196;8.096;2022-08-19T12:19:32;4.77;;;4.37;;
15982;SDS011;14442;50.196;8.096;2022-08-19T12:21:59;4.97;;;4.40;;
15982;SDS011;14442;50.196;8.096;2022-08-19T12:24:29;4.60;;;4.20;;
15982;SDS011;14442;50.196;8.096;2022-08-19T12:26:57;4.87;;;4.47;;
15982;SDS011;14442;50.196;8.096;2022-08-19T12:29:26;4.93;;;4.10;;
15982;SDS011;14442;50.196;8.096;2022-08-19T12:31:56;5.50;;;4.47;;
15982;SDS011;14442;50.196;8.096;2022-08-19T12:34:26;5.07;;;4.40;;
15982;SDS011;14442;50.196;8.096;2022-08-19T12:36:55;5.30;;;5.00;;
15982;SDS011;14442;50.196;8.096;2022-08-19T12:39:21;5.37;;;4.90;;
15982;SDS011;14442;50.196;8.096;2022-08-19T12:41:48;5.30;;;4.80;;
15982;SDS011;14442;50.196;8.096;2022-08-19T12:44:16;5.10;;;4.60;;
15982;SDS011;14442;50.196;8.096;2022-08-19T12:46:43;4.97;;;4.53;;
15982;SDS011;14442;50.196;8.096;2022-08-19T12:49:11;5.80;;;5.30;;
15982;SDS011;14442;50.196;8.096;2022-08-19T12:51:37;6.17;;;5.73;;
15982;SDS011;14442;50.196;8.096;2022-08-19T12:54:04;7.37;;;6.67;;
15982;SDS011;14442;50.196;8.096;2022-08-19T12:56:31;6.63;;;6.13;;
15982;SDS011;14442;50.196;8.096;2022-08-19T12:59:00;5.53;;;5.03;;
15982;SDS011;14442;50.196;8.096;2022-08-19T13:01:27;7.67;;;7.03;;
15982;SDS011;14442;50.196;8.096;2022-08-19T13:03:55;6.77;;;6.17;;
15982;SDS011;14442;50.196;8.096;2022-08-19T13:06:23;6.87;;;6.17;;
15982;SDS011;14442;50.196;8.096;2022-08-19T13:08:50;6.83;;;6.23;;
15982;SDS011;14442;50.196;8.096;2022-08-19T13:11:18;6.40;;;5.90;;
15982;SDS011;14442;50.196;8.096;2022-08-19T13:13:49;6.87;;;6.00;;
15982;SDS011;14442;50.196;8.096;2022-08-19T13:16:17;6.93;;;6.37;;
15982;SDS011;14442;50.196;8.096;2022-08-19T13:18:46;6.57;;;6.07;;
15982;SDS011;14442;50.196;8.096;2022-08-19T13:21:14;6.07;;;5.63;;
15982;SDS011;14442;50.196;8.096;2022-08-19T13:23:42;5.50;;;5.20;;
15982;SDS011;14442;50.196;8.096;2022-08-19T13:26:10;6.30;;;5.80;;
15982;SDS011;14442;50.196;8.096;2022-08-19T13:28:38;7.80;;;7.30;;
15982;SDS011;14442;50.196;8.096;2022-08-19T13:31:23;7.17;;;6.57;;
15982;SDS011;14442;50.196;8.096;2022-08-19T13:34:09;6.80;;;6.23;;
15982;SDS011;14442;50.196;8.096;2022-08-19T13:36:36;7.07;;;6.57;;
15982;SDS011;14442;50.196;8.096;2022-08-19T13:39:05;9.83;;;8.97;;
15982;SDS011;14442;50.196;8.096;2022-08-19T13:41:33;9.40;;;8.53;;
15982;SDS011;14442;50.196;8.096;2022-08-19T13:44:01;8.27;;;7.73;;
15982;SDS011;14442;50.196;8.096;2022-08-19T13:46:28;8.30;;;7.70;;
15982;SDS011;14442;50.196;8.096;2022-08-19T13:48:55;8.73;;;8.03;;
15982;SDS011;14442;50.196;8.096;2022-08-19T13:51:22;11.50;;;10.50;;
15982;SDS011;14442;50.196;8.096;2022-08-19T13:53:49;10.30;;;9.40;;
15982;SDS011;14442;50.196;8.096;2022-08-19T13:56:18;11.27;;;10.23;;
15982;SDS011;14442;50.196;8.096;2022-08-19T13:58:45;14.80;;;13.50;;
15982;SDS011;14442;50.196;8.096;2022-08-19T14:01:12;14.53;;;13.13;;
15982;SDS011;14442;50.196;8.096;2022-08-19T14:03:45;13.00;;;11.57;;
15982;SDS011;14442;50.196;8.096;2022-08-19T14:06:12;14.80;;;13.40;;
15982;SDS011;14442;50.196;8.096;2022-08-19T14:08:38;15.00;;;13.53;;
15982;SDS011;14442;50.196;8.096;2022-08-19T14:11:06;15.80;;;14.30;;
15982;SDS011;14442;50.196;8.096;2022-08-19T14:13:34;10.90;;;9.90;;
15982;SDS011;14442;50.196;8.096;2022-08-19T14:16:05;11.37;;;10.23;;
15982;SDS011;14442;50.196;8.096;2022-08-19T14:18:33;8.57;;;7.87;;
15982;SDS011;14442;50.196;8.096;2022-08-19T14:21:00;8.37;;;7.63;;
15982;SDS011;14442;50.196;8.096;2022-08-19T14:23:27;9.20;;;7.20;;
15982;SDS011;14442;50.196;8.096;2022-08-19T14:26:02;8.27;;;7.50;;
15982;SDS011;14442;50.196;8.096;2022-08-19T14:28:30;7.73;;;7.13;;
15982;SDS011;14442;50.196;8.096;2022-08-19T14:30:58;6.93;;;5.90;;
15982;SDS011;14442;50.196;8.096;2022-08-19T14:33:24;5.87;;;5.40;;
15982;SDS011;14442;50.196;8.096;2022-08-19T14:35:51;6.33;;;5.40;;